Happy Valentine's Day! 

Flight Track Log - Related Links

Times and Time Zones

All times are in EST time to prevent confusion due to time zone crossing. See the N931ED flight status page for this flight to view local times or setup timezone preferences in your user account.


Time Position Orientation Groundspeed Altitude Reporting Facility
EST Latitude Longitude Course Direction KTS MPH feet Rate Location/Type
Wed 10:08:49 AM 46.9503 -122.9056 135° Southeast 182 209 1,600  Level Seattle Center
Wed 10:09:13 AM 46.9364 -122.8850 135° Southeast 171 197 3,300 4,286 Climbing Seattle Center
Wed 10:10:13 AM 46.9083 -122.7950 114° Southeast 241 277 7,600 2,826 Climbing Seattle Center
Wed 10:11:14 AM 46.8769 -122.6814 112° Southeast 296 341 9,000 1,475 Climbing Seattle Center
Wed 10:12:15 AM 46.8447 -122.5636 112° Southeast 311 358 10,600 2,132 Climbing Seattle Center
Wed 10:13:15 AM 46.8036 -122.4186 112° Southeast 355 409 13,300 3,174 Climbing Seattle Center
Wed 10:14:16 AM 46.7611 -122.2797 114° Southeast 374 430 17,000 2,902 Climbing Seattle Center
Wed 10:15:17 AM 46.7314 -122.1631 110° East 366 421 19,200 2,727 Climbing Seattle Center
Wed 10:16:17 AM 46.7414 -122.0161 84° East 366 421 22,500 3,273 Climbing Seattle Center
Wed 10:17:18 AM 46.7550 -121.8394 84° East 367 422 25,800 2,754 Climbing Seattle Center
Wed 10:18:19 AM 46.7614 -121.6828 87° East 385 443 28,100 2,182 Climbing Seattle Center
Wed 10:19:19 AM 46.7692 -121.5392 85° East 394 453 30,200 2,033 Climbing Seattle Center
Wed 10:20:20 AM 46.7783 -121.3783 85° East 397 457 32,200 2,016 Climbing Seattle Center
Wed 10:21:21 AM 46.7853 -121.2072 87° East 412 474 34,300 1,983 Climbing Seattle Center
Wed 10:22:21 AM 46.7936 -121.0336 86° East 422 486 36,200 1,835 Climbing Seattle Center
Wed 10:23:22 AM 46.8017 -120.8578 86° East 429 494 38,000 1,869 Climbing Seattle Center
Wed 10:24:23 AM 46.8108 -120.6842 86° East 431 496 40,000 1,475 Climbing Seattle Center
Wed 10:25:24 AM 46.8172 -120.5083 87° East 433 498 41,000 496 Climbing Seattle Center
Wed 10:26:24 AM 46.8275 -120.2908 86° East 442 509 41,000  Level Seattle Center
Wed 10:27:25 AM 46.8353 -120.1044 86° East 454 522 41,000  Level Seattle Center
Wed 10:28:26 AM 46.8417 -119.9431 87° East 461 531 41,000  Level Seattle Center
Wed 10:29:27 AM 46.8475 -119.7583 87° East 460 529 41,000  Level Seattle Center
Wed 10:30:27 AM 46.8553 -119.5775 86° East 452 520 41,000  Level Seattle Center
Wed 10:31:28 AM 46.8622 -119.3583 87° East 452 520 41,000  Level Seattle Center
Wed 10:32:29 AM 46.8672 -119.1767 88° East 451 519 41,000  Level Seattle Center
Wed 10:33:30 AM 46.8731 -118.9936 87° East 453 521 41,000  Level Seattle Center
Wed 10:34:31 AM 46.8778 -118.8097 88° East 453 521 41,000  Level Seattle Center
Wed 10:35:31 AM 46.8839 -118.6261 87° East 455 524 41,000  Level Seattle Center
Wed 10:36:32 AM 46.8894 -118.4453 87° East 448 516 41,000  Level Seattle Center
Wed 10:37:33 AM 46.8942 -118.2633 88° East 448 516 41,000  Level Seattle Center
Wed 10:38:34 AM 46.8983 -118.0825 88° East 446 513 41,000  Level Seattle Center
Wed 10:39:34 AM 46.9022 -117.9006 88° East 449 517 41,000  Level Seattle Center
Wed 10:40:35 AM 46.9061 -117.7178 88° East 450 518 41,000  Level Seattle Center
Wed 10:41:36 AM 46.9092 -117.5308 89° East 459 528 41,000  Level Seattle Center
Wed 10:42:37 AM 46.9119 -117.3506 89° East 453 521 41,000  Level Seattle Center
Wed 10:43:37 AM 46.9150 -117.1692 89° East 450 518 41,000  Level Seattle Center
Wed 10:44:38 AM 46.9172 -116.9542 89° East 446 513 41,000 -934 Level Seattle Center
Wed 10:45:39 AM 46.9192 -116.7700 89° East 453 521 39,100 -2,361 Descending Seattle Center
Wed 10:46:40 AM 46.9211 -116.5842 89° East 458 527 36,200 -2,705 Descending Seattle Center
Wed 10:47:41 AM 46.9214 -116.3944 90° East 466 536 33,600 -2,579 Descending Seattle Center
Wed 10:48:41 AM 46.9242 -116.2069 89° East 466 536 31,000 -2,727 Descending Seattle Center
Wed 10:49:42 AM 46.9242 -116.0244 90° East 455 524 28,100 -2,607 Descending Seattle Center
Wed 10:50:43 AM 46.9247 -115.8431 90° East 451 519 25,700 -2,361 Descending Seattle Center
Wed 10:51:44 AM 46.9253 -115.6700 90° East 434 499 23,300 -2,331 Descending Seattle Center
Wed 10:52:44 AM 46.9258 -115.5000 90° East 425 489 21,000 -2,440 Descending Seattle Center
Wed 10:53:15 AM 46.9261 -115.3922 90° East 418 481 19,600 -2,262 Descending Salt Lake Center
Wed 10:53:45 AM 46.9256 -115.3283 91° East 411 473 18,700 -1,648 Descending Seattle Center
Wed 10:54:46 AM 46.9261 -115.1719 90° East 395 455 17,100 -1,770 Descending Seattle Center
Wed 10:55:47 AM 46.9739 -115.0469 61° Northeast 361 415 15,100 -1,525 Descending Seattle Center
Wed 10:56:48 AM 47.0228 -114.9336 58° Northeast 338 389 14,000 -1,587 Descending Seattle Center
Wed 10:57:48 AM 47.0681 -114.8211 59° Northeast 326 375 11,900 -1,983 Descending Seattle Center
Wed 10:58:49 AM 47.1133 -114.7075 60° Northeast 325 374 10,000 -1,608 Descending Seattle Center
Wed 10:59:25 AM 47.1456 -114.6289 59° Northeast 307 353 9,300 -796 Descending Salt Lake Center
Wed 11:00:27 AM 47.1422 -114.5125 92° East 276 318 8,700 -341 Descending Salt Lake Center
Wed 11:01:28 AM 47.1125 -114.4231 116° Southeast 252 290 8,600 -293 Descending Salt Lake Center
Wed 11:02:30 AM 47.0728 -114.3622 134° Southeast 210 242 8,100 -919 Descending Salt Lake Center
Wed 11:03:32 AM 47.0344 -114.2950 130° Southeast 202 232 6,700 -1,122 Descending Salt Lake Center
Wed 11:04:33 AM 47.0042 -114.2422 130° Southeast 176 203 5,800 -976 Descending Salt Lake Center
Wed 11:05:35 AM 46.9742 -114.1928 132° Southeast 167 192 4,700 -919 Descending Salt Lake Center
Wed 11:06:37 AM 46.9467 -114.1439 129° Southeast 149 171 3,900 -732 Descending Salt Lake Center
Wed 11:07:38 AM 46.9239 -114.1058 131° Southeast 129 148 3,200 -689 Descending Salt Lake Center

Login

Don't have an account? Register now (free) for customized features, flight alerts, and more!